Time;durP1;ratioP1;P1;durP2;ratioP2;P2;SDS_P1;SDS_P2;PMS_P1;PMS_P2;Temp;Humidity;BMP_temperature;BMP_pressure;BME280_temperature;BME280_humidity;BME280_pressure;Samples;Min_cycle;Max_cycle;Signal;HPM_P1;HPM_P2
2023/08/28 00:03:22;;;;;;;6.50;3.10;;;;;;;28.59;37.88;100195.14;104225;1288;73413;-84
2023/08/28 00:05:47;;;;;;;4.90;3.40;;;;;;;28.59;37.85;100197.02;103841;1288;69953;-84
2023/08/28 00:08:13;;;;;;;5.60;3.50;;;;;;;28.59;37.94;100191.70;104082;1290;69242;-84
2023/08/28 00:10:40;;;;;;;4.60;2.90;;;;;;;28.58;37.91;100190.67;104139;1287;69217;-84
2023/08/28 00:13:05;;;;;;;5.00;3.10;;;;;;;28.58;38.07;100188.20;104102;1288;69209;-84
2023/08/28 00:15:30;;;;;;;5.80;3.40;;;;;;;28.58;38.01;100183.91;104125;1287;69238;-84
2023/08/28 00:17:56;;;;;;;8.80;3.80;;;;;;;28.57;38.10;100182.89;104084;1288;69269;-84
2023/08/28 00:20:21;;;;;;;6.50;3.30;;;;;;;28.57;37.77;100184.15;103814;1287;69267;-84
2023/08/28 00:22:47;;;;;;;6.80;3.30;;;;;;;28.56;37.91;100180.85;103765;1288;69315;-84
2023/08/28 00:25:12;;;;;;;5.40;3.30;;;;;;;28.56;38.02;100179.41;104166;1287;67303;-84
2023/08/28 00:30:11;;;;;;;5.70;3.40;;;;;;;28.55;37.89;100169.20;104250;1287;69199;-84
2023/08/28 00:32:38;;;;;;;5.80;3.20;;;;;;;28.54;38.07;100168.14;104198;1286;69154;-84
2023/08/28 00:35:05;;;;;;;6.00;3.20;;;;;;;28.55;38.17;100167.71;104166;1286;69156;-84
2023/08/28 00:37:30;;;;;;;7.90;3.40;;;;;;;28.54;38.12;100164.98;104159;1286;69259;-84
2023/08/28 00:39:56;;;;;;;7.20;3.60;;;;;;;28.54;38.14;100167.23;103905;1286;69334;-84
2023/08/28 00:42:21;;;;;;;5.10;3.30;;;;;;;28.54;38.07;100170.20;103948;1288;69283;-84
2023/08/28 00:44:47;;;;;;;4.10;3.00;;;;;;;28.53;38.09;100173.13;104158;1290;69277;-85
2023/08/28 00:47:13;;;;;;;7.20;4.00;;;;;;;28.53;38.28;100177.64;104801;1291;69321;-86
2023/08/28 00:49:39;;;;;;;7.00;3.40;;;;;;;28.52;38.16;100177.17;104340;1286;69074;-85
2023/08/28 00:52:05;;;;;;;3.70;3.40;;;;;;;28.52;38.15;100180.75;103931;1292;69203;-85
2023/08/28 00:54:30;;;;;;;6.70;3.50;;;;;;;28.51;38.07;100176.84;103980;1285;69212;-85
2023/08/28 00:56:56;;;;;;;5.00;3.30;;;;;;;28.52;38.17;100175.70;104152;1287;69205;-85
2023/08/28 00:59:21;;;;;;;5.40;3.30;;;;;;;28.52;38.10;100178.42;103824;1293;69376;-85
2023/08/28 01:01:47;;;;;;;8.30;3.80;;;;;;;28.51;38.10;100174.11;103810;1288;69267;-85
2023/08/28 01:04:12;;;;;;;7.10;3.60;;;;;;;28.51;38.10;100171.67;104036;1287;69969;-85
2023/08/28 01:06:54;;;;;;;5.70;3.30;;;;;;;28.50;38.17;100169.33;103746;1288;69234;-91
2023/08/28 01:09:25;;;;;;;5.90;3.50;;;;;;;28.50;38.15;100167.13;103957;1291;69237;-85
2023/08/28 01:12:00;;;;;;;6.40;3.60;;;;;;;28.50;38.15;100162.16;103756;1293;69269;-85
2023/08/28 01:14:26;;;;;;;8.20;3.60;;;;;;;28.49;38.22;100160.30;103806;1291;69207;-85
2023/08/28 01:17:05;;;;;;;6.40;3.70;;;;;;;28.48;38.26;100152.83;103797;1288;69275;-85
2023/08/28 01:19:30;;;;;;;8.50;3.70;;;;;;;28.48;38.21;100153.16;103821;1288;73628;-85
2023/08/28 01:22:09;;;;;;;5.30;3.50;;;;;;;28.48;38.17;100154.08;104042;1288;69276;-85
2023/08/28 01:24:42;;;;;;;5.30;3.50;;;;;;;28.48;38.13;100154.73;104035;1288;69138;-91
2023/08/28 01:27:08;;;;;;;6.00;3.60;;;;;;;28.47;38.14;100152.98;103733;1288;69213;-85
2023/08/28 01:29:33;;;;;;;7.60;3.80;;;;;;;28.47;38.31;100155.06;103733;1288;69268;-85
2023/08/28 01:31:59;;;;;;;8.10;3.80;;;;;;;28.47;38.19;100154.80;104011;1288;68786;-85
2023/08/28 01:34:24;;;;;;;10.50;3.80;;;;;;;28.47;38.29;100154.66;104049;1288;69331;-85
2023/08/28 01:36:52;;;;;;;5.60;3.50;;;;;;;28.46;38.22;100155.02;104022;1288;69199;-85
2023/08/28 01:42:02;;;;;;;6.60;3.80;;;;;;;28.44;38.37;100154.84;104041;1288;73422;-84
2023/08/28 01:44:28;;;;;;;5.20;3.30;;;;;;;28.45;38.34;100157.98;103938;1291;69288;-85
2023/08/28 01:46:53;;;;;;;8.20;3.90;;;;;;;28.45;38.30;100157.77;103821;1288;70002;-85
2023/08/28 01:49:19;;;;;;;7.80;3.80;;;;;;;28.45;38.18;100161.82;103737;1288;69209;-85
2023/08/28 01:51:44;;;;;;;4.50;3.40;;;;;;;28.44;38.24;100156.39;104036;1291;69311;-85
2023/08/28 01:54:09;;;;;;;5.80;3.60;;;;;;;28.44;38.29;100152.64;103853;1287;70665;-85
2023/08/28 01:56:35;;;;;;;5.20;3.90;;;;;;;28.43;38.20;100144.91;103619;1293;69293;-84
2023/08/28 01:59:02;;;;;;;9.80;3.90;;;;;;;28.43;38.29;100141.19;103826;1293;69248;-84
2023/08/28 02:01:28;;;;;;;8.00;4.00;;;;;;;28.42;38.27;100143.84;104005;1287;69145;-85
2023/08/28 02:03:53;;;;;;;8.30;4.10;;;;;;;28.42;38.32;100141.15;104076;1292;69187;-84
2023/08/28 02:08:59;;;;;;;;;;;;;;;28.41;38.46;100132.66;103873;1290;69743;-84
2023/08/28 02:11:24;;;;;;;5.40;3.60;;;;;;;28.39;38.27;100134.68;104016;1289;69251;-84
2023/08/28 02:13:50;;;;;;;9.60;3.70;;;;;;;28.39;38.38;100138.85;103990;1291;68039;-85
2023/08/28 02:16:16;;;;;;;5.10;3.70;;;;;;;28.39;38.55;100137.18;103924;1290;69270;-84
2023/08/28 02:18:42;;;;;;;9.20;4.10;;;;;;;28.39;38.47;100133.58;104054;1291;70413;-85
2023/08/28 02:21:07;;;;;;;7.10;4.30;;;;;;;28.39;38.45;100132.30;103865;1288;67645;-84
2023/08/28 02:23:33;;;;;;;6.70;3.80;;;;;;;28.39;38.54;100133.99;104029;1292;69833;-84
2023/08/28 02:25:58;;;;;;;7.10;3.80;;;;;;;28.38;38.63;100134.11;103973;1288;69308;-85
2023/08/28 02:28:25;;;;;;;5.70;3.70;;;;;;;28.38;38.42;100134.68;103776;1288;69194;-85
2023/08/28 02:30:50;;;;;;;8.80;3.80;;;;;;;28.39;38.50;100134.56;104560;1288;69618;-86
2023/08/28 02:35:56;;;;;;;10.50;4.10;;;;;;;28.38;38.67;100139.30;104049;1288;69094;-85
2023/08/28 02:38:21;;;;;;;5.30;3.80;;;;;;;28.38;38.69;100137.04;104019;1288;69195;-84
2023/08/28 02:40:47;;;;;;;7.00;4.20;;;;;;;28.38;38.88;100130.50;104032;1291;69249;-84
2023/08/28 02:43:13;;;;;;;11.90;4.00;;;;;;;28.38;38.73;100132.34;104131;1291;69289;-84
2023/08/28 02:45:39;;;;;;;6.10;3.70;;;;;;;28.38;38.85;100139.31;104136;1288;69251;-85
2023/08/28 02:48:05;;;;;;;8.50;4.10;;;;;;;28.38;38.95;100139.42;103975;1291;69246;-84
2023/08/28 02:50:34;;;;;;;6.60;3.70;;;;;;;28.37;39.01;100137.10;104211;1289;69258;-84
2023/08/28 02:52:59;;;;;;;10.60;4.20;;;;;;;28.36;38.99;100141.61;104051;1288;69026;-84
2023/08/28 02:55:25;;;;;;;7.40;3.80;;;;;;;28.37;38.93;100142.91;104084;1288;69269;-85
2023/08/28 02:57:50;;;;;;;9.50;3.90;;;;;;;28.37;39.03;100142.92;103972;1293;70669;-85
2023/08/28 03:00:20;;;;;;;8.00;4.00;;;;;;;28.36;39.13;100144.73;104049;1287;69349;-90
2023/08/28 03:02:46;;;;;;;9.30;4.00;;;;;;;28.35;39.27;100145.23;103987;1291;69194;-84
2023/08/28 03:05:11;;;;;;;5.20;3.60;;;;;;;28.35;39.11;100145.20;104009;1291;69266;-85
2023/08/28 03:07:38;;;;;;;6.00;3.50;;;;;;;28.35;39.18;100145.91;104043;1289;69256;-85
2023/08/28 03:10:04;;;;;;;9.50;4.20;;;;;;;28.34;39.19;100146.60;104079;1291;70369;-84
2023/08/28 03:12:30;;;;;;;8.00;4.10;;;;;;;28.33;39.12;100142.81;103982;1288;69200;-85
2023/08/28 03:14:56;;;;;;;3.50;2.70;;;;;;;28.32;39.23;100139.52;104049;1294;69257;-84
2023/08/28 03:17:22;;;;;;;5.10;3.20;;;;;;;28.29;39.61;100140.70;104158;1289;73320;-85
2023/08/28 03:19:47;;;;;;;7.00;4.00;;;;;;;28.27;39.77;100139.67;104124;1291;70477;-85
2023/08/28 03:22:12;;;;;;;11.50;6.80;;;;;;;28.24;39.87;100144.39;104076;1292;69247;-84
2023/08/28 03:24:38;;;;;;;14.50;7.30;;;;;;;28.22;39.88;100141.73;104100;1286;69388;-85
2023/08/28 03:29:37;;;;;;;12.20;7.50;;;;;;;28.16;39.84;100134.99;104332;1285;69242;-85
2023/08/28 03:32:03;;;;;;;13.80;7.80;;;;;;;28.14;39.77;100139.75;104050;1288;69284;-85
2023/08/28 03:34:28;;;;;;;15.80;7.70;;;;;;;28.11;39.98;100135.52;104180;1290;69202;-85
2023/08/28 03:36:54;;;;;;;10.10;7.10;;;;;;;28.08;40.01;100134.44;104134;1290;69339;-85
2023/08/28 03:39:19;;;;;;;13.50;6.60;;;;;;;28.05;39.96;100133.64;103978;1286;344584;-85
2023/08/28 03:41:45;;;;;;;21.90;5.30;;;;;;;28.02;40.02;100138.63;104048;1291;69292;-85
2023/08/28 03:44:10;;;;;;;13.10;5.30;;;;;;;27.98;40.04;100142.80;104079;1288;69279;-85
2023/08/28 03:46:36;;;;;;;11.20;4.60;;;;;;;27.93;39.94;100144.78;103993;1286;71685;-85
2023/08/28 03:49:01;;;;;;;10.70;4.50;;;;;;;27.88;40.02;100148.36;104069;1288;69053;-85
2023/08/28 03:51:27;;;;;;;10.00;4.80;;;;;;;27.85;39.79;100149.48;104154;1291;69254;-85
2023/08/28 03:53:52;;;;;;;11.30;4.60;;;;;;;27.82;39.91;100150.92;104163;1291;69310;-85
2023/08/28 03:56:17;;;;;;;10.90;4.50;;;;;;;27.77;40.03;100153.46;104035;1285;69449;-85
2023/08/28 03:58:43;;;;;;;11.10;4.60;;;;;;;27.73;40.02;100149.98;104155;1291;69273;-85
2023/08/28 04:01:08;;;;;;;9.70;4.20;;;;;;;27.69;40.03;100149.33;104068;1288;70411;-85
2023/08/28 04:03:34;;;;;;;10.30;4.20;;;;;;;27.67;40.15;100151.61;104129;1285;69249;-85
2023/08/28 04:06:00;;;;;;;9.90;4.60;;;;;;;27.63;40.16;100142.73;104153;1287;68388;-86
2023/08/28 04:08:25;;;;;;;10.70;4.50;;;;;;;27.59;40.22;100146.82;104081;1291;69253;-85
2023/08/28 04:10:52;;;;;;;14.20;4.80;;;;;;;27.57;40.33;100141.79;104281;1288;69690;-85
2023/08/28 04:13:17;;;;;;;11.40;4.60;;;;;;;27.55;40.27;100145.02;104224;1291;69165;-85
2023/08/28 04:15:43;;;;;;;12.50;5.10;;;;;;;27.52;40.26;100147.16;104644;1288;66630;-85
2023/08/28 04:18:09;;;;;;;13.80;5.20;;;;;;;27.50;40.26;100141.55;104131;1288;69294;-86
2023/08/28 04:20:34;;;;;;;12.70;4.60;;;;;;;27.48;40.45;100141.92;103989;1288;69177;-85
2023/08/28 04:23:00;;;;;;;14.20;4.60;;;;;;;27.46;40.42;100145.84;104197;1288;69222;-85
2023/08/28 04:25:28;;;;;;;10.00;4.60;;;;;;;27.43;40.45;100147.35;104203;1289;69096;-85
2023/08/28 04:27:54;;;;;;;15.80;4.80;;;;;;;27.42;40.52;100146.33;104131;1289;73513;-85
2023/08/28 04:30:19;;;;;;;12.10;4.60;;;;;;;27.41;40.59;100143.71;104064;1291;69306;-85
2023/08/28 04:35:25;;;;;;;13.80;4.50;;;;;;;27.39;40.68;100143.06;103894;1291;69107;-86
2023/08/28 04:37:50;;;;;;;10.30;4.70;;;;;;;27.38;40.91;100142.38;105037;1293;69312;-86
2023/08/28 04:40:16;;;;;;;8.30;4.20;;;;;;;27.37;41.15;100143.02;105128;1290;69283;-86
2023/08/28 04:42:41;;;;;;;14.00;5.00;;;;;;;27.38;41.32;100139.58;104279;1289;69269;-86
2023/08/28 04:45:07;;;;;;;10.00;4.70;;;;;;;27.38;41.51;100140.02;103969;1290;69227;-86
2023/08/28 04:47:33;;;;;;;12.50;5.00;;;;;;;27.40;41.61;100141.28;103850;1290;69272;-86
2023/08/28 04:49:58;;;;;;;12.60;5.70;;;;;;;27.39;41.71;100144.66;103744;1291;69608;-85
2023/08/28 04:52:24;;;;;;;10.30;4.40;;;;;;;27.39;41.81;100144.46;103812;1289;69197;-86
2023/08/28 04:54:49;;;;;;;14.90;5.60;;;;;;;27.39;41.92;100143.33;103847;1289;69273;-85
2023/08/28 04:57:15;;;;;;;13.10;4.90;;;;;;;27.38;42.01;100145.94;103771;1290;69197;-85
2023/08/28 05:02:14;;;;;;;14.20;5.10;;;;;;;27.37;42.19;100149.53;104212;1287;69174;-85
2023/08/28 05:04:39;;;;;;;9.80;5.10;;;;;;;27.36;42.10;100155.40;103898;1290;69289;-85
2023/08/28 05:07:07;;;;;;;8.60;4.70;;;;;;;27.35;42.12;100158.92;103921;1289;69297;-85
2023/08/28 05:09:32;;;;;;;10.40;4.90;;;;;;;27.35;42.10;100158.17;103972;1288;69218;-85
2023/08/28 05:11:58;;;;;;;12.30;4.90;;;;;;;27.34;42.03;100157.56;104036;1290;69395;-86
2023/08/28 05:14:23;;;;;;;11.60;4.60;;;;;;;27.33;41.91;100154.72;103862;1291;69212;-85
2023/08/28 05:16:49;;;;;;;9.00;4.60;;;;;;;27.31;41.79;100148.01;104129;1289;69314;-85
2023/08/28 05:19:14;;;;;;;8.90;4.90;;;;;;;27.28;41.71;100148.08;103964;1291;69339;-85
2023/08/28 05:21:40;;;;;;;9.90;6.10;;;;;;;27.28;41.66;100146.86;104135;1290;69198;-85
2023/08/28 05:24:06;;;;;;;10.80;5.10;;;;;;;27.29;41.56;100143.69;104163;1289;69386;-86
2023/08/28 05:26:32;;;;;;;20.40;13.20;;;;;;;27.31;41.54;100150.96;104091;1290;69269;-86
2023/08/28 05:28:57;;;;;;;19.10;9.90;;;;;;;27.33;41.57;100149.19;104235;1291;70206;-86
2023/08/28 05:31:23;;;;;;;19.00;10.60;;;;;;;27.34;41.58;100146.77;104007;1290;74864;-85
2023/08/28 05:33:49;;;;;;;18.60;8.70;;;;;;;27.37;41.47;100148.34;104179;1291;69144;-86
2023/08/28 05:36:14;;;;;;;21.30;8.20;;;;;;;27.39;41.52;100142.92;104169;1289;69301;-85
2023/08/28 05:38:49;;;;;;;30.30;7.80;;;;;;;27.40;41.56;100142.86;104042;1289;69224;-90
2023/08/28 05:41:14;;;;;;;24.80;7.00;;;;;;;27.40;41.53;100144.05;103922;1291;69326;-85
2023/08/28 05:43:40;;;;;;;23.20;5.80;;;;;;;27.41;41.44;100141.29;103985;1288;69145;-85
2023/08/28 05:46:06;;;;;;;60.70;7.70;;;;;;;27.41;41.28;100139.58;103926;1291;69308;-85
2023/08/28 05:48:31;;;;;;;34.70;7.00;;;;;;;27.42;41.28;100137.08;103923;1290;72547;-85
2023/08/28 05:50:57;;;;;;;26.10;6.20;;;;;;;27.43;41.25;100129.92;104075;1293;68677;-85
2023/08/28 05:53:22;;;;;;;17.30;6.00;;;;;;;27.43;41.17;100133.40;104070;1290;74684;-84
2023/08/28 05:55:48;;;;;;;19.10;6.50;;;;;;;27.45;41.17;100134.38;104016;1289;69329;-85
2023/08/28 05:58:13;;;;;;;18.60;5.70;;;;;;;27.47;41.20;100136.27;104173;1290;69220;-85
2023/08/28 06:00:38;;;;;;;19.30;6.80;;;;;;;27.50;41.14;100134.95;104162;1288;69278;-84
2023/08/28 06:03:04;;;;;;;15.50;5.10;;;;;;;27.51;41.09;100137.64;104034;1288;69332;-84
2023/08/28 06:08:03;;;;;;;8.90;5.30;;;;;;;27.55;40.97;100133.34;104831;1285;69013;-85
2023/08/28 06:10:29;;;;;;;12.60;5.50;;;;;;;27.56;40.82;100134.31;104957;1286;67918;-84
2023/08/28 06:12:54;;;;;;;14.70;5.20;;;;;;;27.58;40.88;100134.20;104905;1283;69205;-85
2023/08/28 06:15:20;;;;;;;12.20;8.50;;;;;;;27.61;40.76;100134.05;104586;1283;69255;-85
2023/08/28 06:17:46;;;;;;;10.90;8.40;;;;;;;27.64;40.77;100137.95;104711;1283;69240;-85
2023/08/28 06:20:12;;;;;;;14.10;7.10;;;;;;;27.65;40.56;100137.13;104953;1291;69266;-85
2023/08/28 06:22:38;;;;;;;14.50;8.10;;;;;;;27.67;40.29;100138.83;105269;1283;69205;-85
2023/08/28 06:25:04;;;;;;;14.80;7.90;;;;;;;27.68;40.41;100142.55;105067;1283;68298;-85
2023/08/28 06:27:29;;;;;;;15.90;8.00;;;;;;;27.70;40.12;100141.52;104788;1283;71096;-84
2023/08/28 06:29:55;;;;;;;10.50;7.40;;;;;;;27.71;39.87;100143.52;104549;1283;70225;-85
2023/08/28 06:35:02;;;;;;;10.80;7.00;;;;;;;27.73;39.74;100148.00;104183;1285;73654;-85
2023/08/28 06:37:27;;;;;;;10.00;6.70;;;;;;;27.74;39.68;100150.66;104387;1288;69141;-85
2023/08/28 06:39:53;;;;;;;11.20;4.80;;;;;;;27.76;39.45;100150.08;104318;1291;69324;-85
2023/08/28 06:42:18;;;;;;;7.80;6.10;;;;;;;27.78;39.00;100151.65;104322;1288;71035;-86
2023/08/28 06:44:44;;;;;;;13.50;5.70;;;;;;;27.79;38.83;100149.19;104477;1290;69141;-85
2023/08/28 06:47:09;;;;;;;8.90;6.20;;;;;;;27.81;38.57;100146.79;104387;1285;69240;-85
2023/08/28 06:49:35;;;;;;;10.90;5.10;;;;;;;27.82;38.49;100148.77;104343;1286;69272;-85
2023/08/28 06:52:01;;;;;;;7.80;4.60;;;;;;;27.83;38.13;100152.26;104319;1287;69202;-85
2023/08/28 06:54:27;;;;;;;13.20;5.00;;;;;;;27.84;37.91;100154.38;104281;1287;69159;-85
2023/08/28 06:56:52;;;;;;;11.90;5.70;;;;;;;27.85;37.87;100155.17;104761;1286;69260;-85
2023/08/28 07:01:52;;;;;;;16.80;5.50;;;;;;;27.85;37.36;100153.27;104543;1284;69323;-86
2023/08/28 07:04:18;;;;;;;12.50;5.30;;;;;;;27.82;37.06;100148.68;104826;1288;69181;-86
2023/08/28 07:06:44;;;;;;;8.90;4.90;;;;;;;27.83;36.76;100147.13;104736;1286;69405;-86
2023/08/28 07:09:10;;;;;;;12.50;4.90;;;;;;;27.83;36.53;100150.44;104884;1291;69253;-86
2023/08/28 07:11:36;;;;;;;11.20;4.80;;;;;;;27.85;36.41;100145.20;104477;1293;69196;-86
2023/08/28 07:14:02;;;;;;;10.60;4.70;;;;;;;27.86;36.06;100143.91;104756;1286;68910;-86
2023/08/28 07:16:28;;;;;;;11.10;4.80;;;;;;;27.88;35.82;100139.36;104821;1285;69163;-86
2023/08/28 07:18:53;;;;;;;8.60;5.00;;;;;;;27.91;35.56;100134.95;104784;1292;67846;-86
2023/08/28 07:21:19;;;;;;;7.30;4.40;;;;;;;27.93;35.12;100133.02;104514;1286;69265;-86
2023/08/28 07:23:44;;;;;;;8.00;4.80;;;;;;;27.95;34.99;100130.33;104538;1287;69284;-86
2023/08/28 07:28:43;;;;;;;10.40;4.90;;;;;;;27.98;34.54;100130.93;104741;1288;69004;-85
2023/08/28 07:31:10;;;;;;;5.10;4.10;;;;;;;28.00;34.08;100138.36;104515;1287;67492;-85
2023/08/28 07:33:36;;;;;;;10.60;4.00;;;;;;;28.01;33.97;100139.16;104722;1285;69171;-86
2023/08/28 07:36:01;;;;;;;8.00;4.40;;;;;;;28.03;33.77;100137.87;104700;1288;69270;-85
2023/08/28 07:38:27;;;;;;;5.60;4.60;;;;;;;28.04;33.65;100138.98;104577;1284;69260;-86
2023/08/28 07:40:52;;;;;;;8.50;4.60;;;;;;;28.06;33.51;100133.88;104784;1285;69237;-85
2023/08/28 07:43:18;;;;;;;7.90;4.20;;;;;;;28.08;33.31;100130.95;104451;1286;70637;-85
2023/08/28 07:45:43;;;;;;;9.10;4.50;;;;;;;28.10;33.18;100134.68;105109;1285;69196;-85
2023/08/28 07:48:09;;;;;;;9.40;4.10;;;;;;;28.12;33.30;100133.06;105215;1285;68855;-86
2023/08/28 07:50:35;;;;;;;8.70;4.10;;;;;;;28.13;33.02;100133.71;105401;1285;69267;-86
2023/08/28 07:53:00;;;;;;;9.90;4.30;;;;;;;28.16;32.72;100136.23;104671;1288;69278;-86
2023/08/28 07:55:26;;;;;;;8.30;4.40;;;;;;;28.18;32.57;100138.10;104523;1286;69327;-86
2023/08/28 07:57:52;;;;;;;10.80;4.90;;;;;;;28.19;32.43;100138.66;104462;1286;69150;-86
2023/08/28 08:00:20;;;;;;;9.30;4.60;;;;;;;28.22;32.39;100140.86;105082;1286;69180;-86
2023/08/28 08:02:47;;;;;;;11.00;4.60;;;;;;;28.24;32.28;100138.81;104986;1288;73703;-86
2023/08/28 08:05:13;;;;;;;12.00;4.70;;;;;;;28.27;32.14;100140.32;104473;1286;69292;-90
2023/08/28 08:07:41;;;;;;;11.80;5.00;;;;;;;28.29;32.16;100131.86;104505;1285;69263;-86
2023/08/28 08:10:08;;;;;;;9.60;5.90;;;;;;;28.31;31.95;100128.77;104689;1286;69147;-86
2023/08/28 08:12:34;;;;;;;11.40;6.60;;;;;;;28.33;31.86;100126.11;104468;1291;69132;-86
2023/08/28 08:14:59;;;;;;;12.80;6.80;;;;;;;28.35;31.80;100126.98;104670;1286;69281;-86
2023/08/28 08:17:25;;;;;;;15.10;6.40;;;;;;;28.36;31.71;100122.54;104466;1286;69354;-87
2023/08/28 08:19:50;;;;;;;17.50;6.60;;;;;;;28.38;31.66;100120.38;104544;1285;69266;-86
2023/08/28 08:22:16;;;;;;;11.20;6.00;;;;;;;28.39;31.54;100123.34;104516;1286;69343;-86
2023/08/28 08:24:41;;;;;;;10.70;5.10;;;;;;;28.40;31.56;100119.16;104485;1288;69509;-86
2023/08/28 08:27:07;;;;;;;14.60;4.90;;;;;;;28.41;31.54;100114.98;104504;1286;69145;-86
2023/08/28 08:29:33;;;;;;;11.20;4.60;;;;;;;28.43;31.61;100111.44;104524;1286;69659;-87
2023/08/28 08:34:32;;;;;;;11.50;4.50;;;;;;;28.47;31.40;100113.10;104676;1285;69096;-86
2023/08/28 08:36:58;;;;;;;9.60;4.70;;;;;;;28.49;31.45;100109.91;104318;1285;69261;-86
2023/08/28 08:39:24;;;;;;;9.50;4.40;;;;;;;28.51;31.46;100105.49;104659;1288;69200;-87
2023/08/28 08:41:49;;;;;;;12.50;4.70;;;;;;;28.52;31.45;100109.29;104383;1285;69763;-86
2023/08/28 08:44:15;;;;;;;15.30;4.20;;;;;;;28.54;31.32;100105.74;104694;1285;69207;-87
2023/08/28 08:46:41;;;;;;;12.30;4.80;;;;;;;28.56;31.39;100105.39;104792;1285;69286;-87
2023/08/28 08:49:06;;;;;;;13.40;5.10;;;;;;;28.58;31.28;100104.44;104395;1291;69336;-87
2023/08/28 08:51:32;;;;;;;13.20;4.70;;;;;;;28.60;31.25;100100.56;104563;1285;69244;-87
2023/08/28 08:54:12;;;;;;;8.70;4.50;;;;;;;28.62;31.32;100100.21;104408;1288;70098;-86
2023/08/28 08:56:38;;;;;;;8.00;4.40;;;;;;;28.64;31.22;100101.27;104697;1285;69594;-87
2023/08/28 08:59:03;;;;;;;12.20;5.00;;;;;;;28.67;31.28;100101.05;104837;1285;69274;-88
2023/08/28 09:01:29;;;;;;;6.40;4.50;;;;;;;28.69;31.34;100098.14;104362;1285;69285;-88
2023/08/28 09:03:56;;;;;;;12.00;5.30;;;;;;;28.71;31.02;100094.02;104509;1288;67236;-87
2023/08/28 09:06:22;;;;;;;14.70;5.10;;;;;;;28.73;31.14;100095.46;104404;1285;69231;-87
2023/08/28 09:08:47;;;;;;;9.50;5.20;;;;;;;28.75;30.76;100091.41;104579;1285;68365;-87
2023/08/28 09:11:13;;;;;;;8.20;5.00;;;;;;;28.78;30.59;100088.23;104426;1291;69251;-87
2023/08/28 09:13:39;;;;;;;10.60;5.40;;;;;;;28.80;30.62;100081.89;104361;1287;67068;-87
2023/08/28 09:16:06;;;;;;;13.00;5.10;;;;;;;28.82;30.55;100077.17;104451;1287;69252;-87
2023/08/28 09:18:31;;;;;;;9.60;5.90;;;;;;;28.83;30.35;100074.13;104168;1291;69699;-87
2023/08/28 09:21:09;;;;;;;8.80;5.60;;;;;;;28.84;30.21;100074.97;104283;1291;69291;-87
2023/08/28 09:23:40;;;;;;;10.20;5.60;;;;;;;28.86;30.09;100073.54;104549;1288;69224;-87
2023/08/28 09:26:05;;;;;;;11.20;5.50;;;;;;;28.89;29.85;100071.52;104134;1288;69231;-87
2023/08/28 09:28:31;;;;;;;9.70;5.30;;;;;;;28.92;29.63;100069.17;104122;1288;69288;-87
2023/08/28 09:30:56;;;;;;;8.40;6.00;;;;;;;28.94;29.13;100065.14;104337;1292;69790;-87
2023/08/28 09:33:22;;;;;;;10.20;6.40;;;;;;;28.97;29.05;100066.83;104379;1287;69363;-86
2023/08/28 09:35:47;;;;;;;13.30;6.80;;;;;;;29.00;28.76;100065.64;104379;1288;69344;-86
2023/08/28 09:38:13;;;;;;;9.80;7.30;;;;;;;29.02;28.93;100066.27;104466;1287;69200;-86
2023/08/28 09:43:21;;;;;;;15.10;9.40;;;;;;;29.05;28.95;100060.33;104517;1288;73600;-86
2023/08/28 09:45:47;;;;;;;11.80;9.30;;;;;;;29.05;29.00;100050.49;104194;1288;69278;-86
2023/08/28 09:48:13;;;;;;;9.70;8.50;;;;;;;29.04;29.21;100046.30;104659;1288;69340;-86
2023/08/28 09:50:39;;;;;;;13.20;9.70;;;;;;;29.04;29.23;100042.05;104611;1288;69209;-87
2023/08/28 09:53:06;;;;;;;17.30;10.20;;;;;;;29.05;29.25;100038.52;104610;1291;69202;-86
2023/08/28 09:55:32;;;;;;;12.60;10.20;;;;;;;29.06;29.07;100038.21;105454;1287;69105;-86
2023/08/28 09:57:57;;;;;;;14.90;9.30;;;;;;;29.08;29.24;100037.43;105502;1287;69342;-88
2023/08/28 10:00:23;;;;;;;14.50;9.70;;;;;;;29.11;29.06;100034.53;105484;1290;69205;-86
2023/08/28 10:02:50;;;;;;;15.70;10.90;;;;;;;29.13;29.12;100032.82;104305;1285;67938;-86
2023/08/28 10:05:16;;;;;;;14.70;10.00;;;;;;;29.14;29.09;100028.17;104878;1285;73572;-86
2023/08/28 10:07:52;;;;;;;12.60;9.20;;;;;;;29.15;29.31;100024.31;104449;1287;69251;-91
2023/08/28 10:10:18;;;;;;;14.60;9.90;;;;;;;29.15;29.42;100018.91;104628;1288;69078;-86
2023/08/28 10:12:45;;;;;;;15.00;9.30;;;;;;;29.17;29.31;100022.45;104132;1285;69365;-87
2023/08/28 10:15:11;;;;;;;13.10;8.70;;;;;;;29.19;29.42;100014.80;104464;1288;69075;-86
2023/08/28 10:17:36;;;;;;;12.30;9.10;;;;;;;29.22;29.28;100005.23;104509;1287;72649;-86
2023/08/28 10:20:03;;;;;;;25.60;18.70;;;;;;;29.23;29.15;100004.95;103997;1288;69276;-87
2023/08/28 10:25:13;;;;;;;16.90;11.90;;;;;;;29.28;29.40;100002.14;104566;1288;69147;-86
2023/08/28 10:27:40;;;;;;;15.60;10.50;;;;;;;29.29;29.47;99997.39;104711;1287;69257;-86
2023/08/28 10:30:06;;;;;;;16.80;9.20;;;;;;;29.28;29.55;99998.19;105191;1285;73516;-86
2023/08/28 10:32:32;;;;;;;13.10;8.70;;;;;;;29.27;29.71;99995.69;104811;1292;69179;-86
2023/08/28 10:34:57;;;;;;;14.80;8.30;;;;;;;29.27;29.56;99994.35;104376;1285;69356;-86
2023/08/28 10:37:23;;;;;;;11.10;8.00;;;;;;;29.28;29.90;99989.60;104198;1286;69244;-86
2023/08/28 10:39:48;;;;;;;12.60;7.90;;;;;;;29.29;29.83;99988.71;104268;1291;69245;-86
2023/08/28 10:42:17;;;;;;;11.20;7.70;;;;;;;29.29;30.13;99985.30;104147;1288;69167;-85
2023/08/28 10:44:43;;;;;;;8.90;7.10;;;;;;;29.30;29.99;99986.81;104200;1287;69285;-86
2023/08/28 10:47:08;;;;;;;12.30;5.80;;;;;;;29.32;29.66;99984.55;104266;1286;69149;-85
2023/08/28 10:49:38;;;;;;;13.60;5.90;;;;;;;29.35;29.73;99987.62;104592;1286;69193;-91
2023/08/28 10:52:07;;;;;;;10.50;5.60;;;;;;;29.37;29.70;99978.45;104012;1291;73616;-85
2023/08/28 10:54:37;;;;;;;12.10;5.70;;;;;;;29.39;29.51;99978.77;104280;1291;69174;-86
2023/08/28 10:57:09;;;;;;;13.70;5.40;;;;;;;29.42;29.46;99985.13;104383;1286;69245;-86
2023/08/28 10:59:45;;;;;;;7.50;4.40;;;;;;;29.47;29.40;99988.23;104367;1286;69157;-86
2023/08/28 11:02:10;;;;;;;9.70;4.60;;;;;;;29.49;29.51;99982.60;104118;1285;69230;-86
2023/08/28 11:04:37;;;;;;;9.50;4.40;;;;;;;29.51;29.34;99980.89;104325;1288;69196;-87
2023/08/28 11:07:03;;;;;;;10.00;4.50;;;;;;;29.51;29.13;99976.23;104108;1288;69196;-86
2023/08/28 11:09:29;;;;;;;8.90;3.80;;;;;;;29.53;29.28;99972.79;104244;1288;69262;-85
2023/08/28 11:11:59;;;;;;;15.00;4.10;;;;;;;29.56;28.96;99969.18;104102;1286;69295;-85
2023/08/28 11:14:25;;;;;;;10.70;3.40;;;;;;;29.61;29.05;99964.42;104311;1285;69080;-85
2023/08/28 11:17:10;;;;;;;5.70;3.40;;;;;;;29.65;29.02;99960.23;104297;1285;69565;-85
2023/08/28 11:19:59;;;;;;;6.30;3.60;;;;;;;29.69;29.10;99957.14;104403;1287;69197;-87
2023/08/28 11:22:34;;;;;;;9.80;3.80;;;;;;;29.71;29.09;99958.13;104258;1290;69195;-92
2023/08/28 11:25:01;;;;;;;7.10;3.90;;;;;;;29.71;29.10;99958.69;104193;1285;69145;-86
2023/08/28 11:27:31;;;;;;;7.00;3.70;;;;;;;29.70;29.14;99958.77;104362;1285;69119;-86
2023/08/28 11:29:56;;;;;;;7.60;3.90;;;;;;;29.72;29.02;99957.46;104218;1285;73361;-86
2023/08/28 11:32:22;;;;;;;24.30;16.00;;;;;;;29.73;28.76;99951.89;104169;1286;69196;-86
2023/08/28 11:34:47;;;;;;;15.80;12.00;;;;;;;29.72;28.91;99951.11;104311;1286;69299;-86
2023/08/28 11:39:53;;;;;;;8.10;5.80;;;;;;;29.76;29.14;99941.98;104348;1285;69233;-85
2023/08/28 11:42:19;;;;;;;12.20;4.90;;;;;;;29.79;28.94;99941.79;104206;1285;69209;-85
2023/08/28 11:44:44;;;;;;;9.10;4.50;;;;;;;29.81;28.99;99942.95;104152;1285;69196;-85
2023/08/28 11:47:10;;;;;;;9.40;3.80;;;;;;;29.82;28.91;99940.95;104213;1289;69264;-85
2023/08/28 11:49:36;;;;;;;9.00;4.10;;;;;;;29.84;29.07;99938.95;104346;1286;69283;-86
2023/08/28 11:52:02;;;;;;;5.30;3.70;;;;;;;29.86;29.03;99935.36;104027;1289;73714;-85